Time;durP1;ratioP1;P1;durP2;ratioP2;P2;SDS_P1;SDS_P2;PMS_P1;PMS_P2;Temp;Humidity;BMP_temperature;BMP_pressure;BME280_temperature;BME280_humidity;BME280_pressure;Samples;Min_cycle;Max_cycle;Signal;HPM_P1;HPM_P2
2022/10/05 08:11:06;;;;;;;3.67;1.77;;;;;;;12.80;71.48;101003.05;1751111;80;21123;-68
2022/10/05 08:14:05;;;;;;;3.35;1.40;;;;;;;12.91;73.56;101008.02;1761022;80;21047;-68
2022/10/05 08:16:37;;;;;;;2.93;1.83;;;;;;;13.14;72.77;101003.69;1759539;81;20978;-66
2022/10/05 08:19:33;;;;;;;5.95;1.85;;;;;;;13.42;71.25;101000.95;1780371;80;21194;-66
2022/10/05 08:22:08;;;;;;;8.00;1.82;;;;;;;13.69;71.90;101005.27;1773254;80;21062;-68
2022/10/05 08:24:58;;;;;;;5.00;1.90;;;;;;;13.98;70.69;100999.48;1783132;80;21088;-70
2022/10/05 08:27:42;;;;;;;3.67;1.75;;;;;;;14.18;69.48;101004.55;1783234;80;21001;-62
2022/10/05 08:30:13;;;;;;;4.45;1.40;;;;;;;14.43;68.81;101009.03;1761510;81;21097;-64
2022/10/05 08:33:10;;;;;;;4.05;1.30;;;;;;;14.58;65.19;101008.85;1769664;80;21047;-62
2022/10/05 08:35:45;;;;;;;3.22;1.80;;;;;;;14.43;64.13;101014.55;1791807;80;21371;-64
2022/10/05 08:38:18;;;;;;;1.80;1.20;;;;;;;14.21;64.45;101011.02;1765180;79;21049;-63
2022/10/05 08:40:58;;;;;;;3.83;1.47;;;;;;;14.20;65.16;101009.32;1791620;79;20972;-61
2022/10/05 08:43:56;;;;;;;3.12;1.60;;;;;;;14.20;64.84;101016.74;1740998;81;21066;-63
2022/10/05 08:46:58;;;;;;;2.45;1.55;;;;;;;14.12;64.13;101024.66;1733469;81;21099;-63
2022/10/05 08:49:51;;;;;;;4.42;1.60;;;;;;;13.93;64.29;101032.31;1721840;82;21051;-64
2022/10/05 08:52:28;;;;;;;4.12;1.75;;;;;;;13.74;64.60;101035.81;1722943;82;21067;-64
2022/10/05 08:55:16;;;;;;;;;;;;;;;13.62;66.40;101039.09;1732028;82;21028;-62
2022/10/05 08:57:50;;;;;;;5.10;1.67;;;;;;;13.56;66.89;101048.16;1717790;82;20248;-63
2022/10/05 09:00:22;;;;;;;2.98;1.70;;;;;;;13.44;66.69;101042.89;1720056;82;21163;-63
2022/10/05 09:03:28;;;;;;;3.95;1.65;;;;;;;13.40;67.24;101047.63;1729677;82;21056;-62
2022/10/05 09:06:32;;;;;;;2.67;1.60;;;;;;;13.33;67.56;101055.83;1713052;82;21071;-63
2022/10/05 09:09:22;;;;;;;2.72;1.62;;;;;;;13.26;66.64;101048.05;1736241;81;21059;-64
2022/10/05 09:12:31;;;;;;;5.08;2.27;;;;;;;13.16;65.75;101055.24;1692469;81;21035;-68
2022/10/05 09:15:45;;;;;;;3.37;1.60;;;;;;;13.12;65.63;101058.06;1770394;81;21015;-69
2022/10/05 09:18:54;;;;;;;4.17;1.77;;;;;;;13.09;65.15;101063.11;1716208;83;21085;-69
2022/10/05 09:21:45;;;;;;;6.55;1.98;;;;;;;13.10;64.69;101048.30;1756138;80;21059;-66
2022/10/05 09:24:31;;;;;;;4.00;1.62;;;;;;;13.17;64.19;101046.49;1762129;81;20992;-66
2022/10/05 09:27:15;;;;;;;4.12;1.60;;;;;;;13.30;63.77;101050.73;1775994;80;21004;-66
2022/10/05 09:29:55;;;;;;;2.50;1.30;;;;;;;13.40;63.28;101049.00;1745919;80;21427;-68
2022/10/05 09:32:59;;;;;;;2.20;1.67;;;;;;;13.39;62.64;101045.92;1774559;80;21078;-67
2022/10/05 09:36:00;;;;;;;3.47;1.50;;;;;;;13.32;62.19;101043.12;1776224;80;21055;-67
2022/10/05 09:39:06;;;;;;;4.08;1.60;;;;;;;13.28;62.64;101058.33;1776168;80;21035;-70
2022/10/05 09:42:10;;;;;;;4.87;2.35;;;;;;;13.27;62.72;101048.38;1773571;80;21181;-68
2022/10/05 09:45:03;;;;;;;4.75;1.80;;;;;;;13.32;62.15;101056.88;1776147;80;21117;-69
2022/10/05 09:48:05;;;;;;;4.15;1.98;;;;;;;13.38;61.88;101057.45;1753851;81;21504;-68
2022/10/05 09:51:01;;;;;;;3.80;1.80;;;;;;;13.38;62.10;101060.21;1768357;81;20995;-69
2022/10/05 09:53:59;;;;;;;5.35;1.65;;;;;;;13.38;62.52;101064.87;1760084;80;21047;-68
2022/10/05 09:57:17;;;;;;;3.67;1.70;;;;;;;13.36;62.98;101060.94;1762762;81;21039;-66
2022/10/05 10:00:04;;;;;;;2.35;1.50;;;;;;;13.39;63.38;101066.05;1767792;81;21089;-67
2022/10/05 10:03:06;;;;;;;4.92;1.70;;;;;;;13.44;63.10;101052.53;1766362;81;21008;-69
2022/10/05 10:06:11;;;;;;;5.08;1.55;;;;;;;13.51;63.26;101064.44;1776227;80;21047;-67
2022/10/05 10:08:56;;;;;;;1.85;1.30;;;;;;;13.59;63.29;101053.80;1776685;80;20972;-66
2022/10/05 10:12:10;;;;;;;5.10;1.57;;;;;;;13.61;62.96;101052.54;1741421;81;21068;-66
2022/10/05 10:15:14;;;;;;;7.47;2.42;;;;;;;13.64;63.04;101057.64;1760326;81;21039;-70
2022/10/05 10:18:32;;;;;;;3.70;1.32;;;;;;;13.68;63.08;101053.14;1762525;81;21458;-70
2022/10/05 10:21:29;;;;;;;2.15;1.20;;;;;;;13.73;63.39;101056.14;1764455;80;21447;-68
2022/10/05 10:24:37;;;;;;;3.00;1.62;;;;;;;13.78;63.19;101057.77;1778722;80;21015;-70
2022/10/05 10:27:42;;;;;;;2.27;1.30;;;;;;;13.79;62.77;101068.58;1764526;80;21007;-71
2022/10/05 10:30:40;;;;;;;3.77;1.70;;;;;;;13.82;62.77;101082.47;1774318;80;21023;-70
2022/10/05 10:33:51;;;;;;;3.42;1.20;;;;;;;13.80;61.57;101072.18;1775181;80;20992;-70
2022/10/05 10:37:05;;;;;;;4.78;2.00;;;;;;;13.78;61.95;101075.66;1762790;81;21473;-69
2022/10/05 10:40:05;;;;;;;12.40;2.52;;;;;;;13.82;62.72;101086.08;1769881;80;21497;-68
2022/10/05 10:43:02;;;;;;;9.75;2.47;;;;;;;13.90;62.12;101074.89;1771788;80;21032;-70
2022/10/05 10:46:10;;;;;;;5.00;1.70;;;;;;;13.92;61.74;101077.45;1763449;81;21427;-69
2022/10/05 10:49:09;;;;;;;4.73;1.60;;;;;;;13.91;61.87;101074.37;1763028;81;21404;-69
2022/10/05 10:52:03;;;;;;;3.37;1.60;;;;;;;13.88;61.69;101074.77;1763814;80;21042;-70
2022/10/05 10:54:48;;;;;;;3.45;1.70;;;;;;;13.83;61.90;101070.40;1754003;81;20952;-68
2022/10/05 10:57:50;;;;;;;4.53;2.02;;;;;;;13.76;62.50;101057.96;1756990;81;21058;-69
2022/10/05 11:00:48;;;;;;;3.08;1.37;;;;;;;13.78;62.56;101068.25;1745406;81;21035;-72
2022/10/05 11:03:48;;;;;;;3.37;1.37;;;;;;;13.79;62.75;101065.83;1770369;80;21457;-71
2022/10/05 11:06:33;;;;;;;2.87;1.35;;;;;;;13.83;62.75;101067.64;1756438;80;21066;-72
2022/10/05 11:09:46;;;;;;;5.33;1.95;;;;;;;13.87;62.92;101070.32;1756459;80;21517;-70
2022/10/05 11:12:45;;;;;;;1.82;1.30;;;;;;;13.91;63.20;101064.20;1663352;86;21501;-69
2022/10/05 11:15:48;;;;;;;6.35;1.67;;;;;;;13.95;62.32;101053.09;1656214;86;21060;-71
2022/10/05 11:18:28;;;;;;;3.37;1.42;;;;;;;13.97;62.33;101059.78;1645076;86;21082;-70
2022/10/05 11:21:49;;;;;;;4.72;1.45;;;;;;;14.00;62.18;101057.14;1644464;86;21171;-72
2022/10/05 11:24:56;;;;;;;3.65;1.40;;;;;;;14.01;62.02;101052.80;1655753;86;21152;-71
2022/10/05 11:28:12;;;;;;;4.55;1.77;;;;;;;14.04;62.00;101052.39;1637274;86;21177;-70
2022/10/05 11:30:49;;;;;;;5.28;1.65;;;;;;;14.04;62.06;101055.15;1650251;86;21098;-70
2022/10/05 11:33:58;;;;;;;3.25;1.55;;;;;;;14.06;62.33;101059.93;1659123;86;21103;-71
2022/10/05 11:36:57;;;;;;;3.57;1.70;;;;;;;14.06;62.08;101053.04;1652841;86;21058;-70
2022/10/05 11:39:57;;;;;;;2.87;1.50;;;;;;;14.05;62.19;101056.00;1647374;86;22003;-72
2022/10/05 11:42:51;;;;;;;3.87;1.70;;;;;;;14.05;62.63;101055.47;1652976;86;21070;-68
2022/10/05 11:46:04;;;;;;;2.15;1.27;;;;;;;14.03;62.04;101060.86;1646423;86;21051;-68
2022/10/05 11:48:53;;;;;;;3.15;1.60;;;;;;;13.99;61.73;101059.58;1646590;86;21041;-69
2022/10/05 11:52:01;;;;;;;4.47;1.60;;;;;;;13.92;61.78;101048.52;1647390;86;21118;-68
2022/10/05 11:54:51;;;;;;;4.05;1.80;;;;;;;13.88;62.02;101054.11;1651509;86;21110;-67
2022/10/05 11:57:52;;;;;;;5.87;1.50;;;;;;;13.88;62.45;101059.63;1650344;86;21066;-70
2022/10/05 12:00:39;;;;;;;6.53;2.20;;;;;;;13.89;63.14;101063.55;1644458;86;21062;-68
2022/10/05 12:03:32;;;;;;;4.10;1.40;;;;;;;13.93;62.72;101070.88;1587546;89;21564;-69
2022/10/05 12:06:38;;;;;;;2.77;1.40;;;;;;;13.93;62.44;101078.63;1608863;88;21122;-70
2022/10/05 12:09:20;;;;;;;2.62;1.50;;;;;;;13.93;62.73;101077.25;1614914;88;21556;-68
2022/10/05 12:12:21;;;;;;;5.22;1.62;;;;;;;13.92;62.66;101069.18;1630219;86;21083;-70
2022/10/05 12:15:08;;;;;;;4.80;1.90;;;;;;;13.95;62.93;101077.04;1651964;86;21062;-68
2022/10/05 12:17:57;;;;;;;3.25;1.72;;;;;;;13.96;63.15;101081.50;1645699;86;21374;-68
2022/10/05 12:20:46;;;;;;;4.05;2.10;;;;;;;13.97;63.12;101087.33;1652337;86;21073;-69
2022/10/05 12:23:20;;;;;;;10.50;2.75;;;;;;;13.96;63.10;101088.38;1660661;86;21017;-68
2022/10/05 12:26:11;;;;;;;4.53;1.90;;;;;;;13.95;63.06;101102.69;1637826;86;21516;-68
2022/10/05 12:28:51;;;;;;;2.37;1.47;;;;;;;13.94;62.75;101102.89;1646565;86;21043;-68
2022/10/05 12:31:49;;;;;;;5.12;1.65;;;;;;;13.92;62.58;101111.89;1645365;87;21051;-67
2022/10/05 12:34:21;;;;;;;;;;;;;;;13.90;62.25;101105.73;1649139;86;21114;-69
2022/10/05 12:37:07;;;;;;;1.22;1.02;;;;;;;13.86;62.13;101119.58;1654587;86;20184;-70
2022/10/05 12:39:50;;;;;;;5.67;1.50;;;;;;;13.81;61.92;101113.83;1646878;86;21023;-69
2022/10/05 12:42:50;;;;;;;4.55;1.55;;;;;;;13.79;61.96;101115.93;1645500;86;21043;-71
2022/10/05 12:45:51;;;;;;;5.35;1.45;;;;;;;13.77;61.91;101119.41;1620217;87;21059;-70
2022/10/05 12:49:11;;;;;;;1.90;1.30;;;;;;;13.76;62.18;101119.94;1645682;86;21054;-70
2022/10/05 12:51:54;;;;;;;2.62;1.40;;;;;;;13.75;62.20;101121.52;1651899;86;21086;-70
2022/10/05 12:55:03;;;;;;;4.37;1.15;;;;;;;13.74;62.18;101119.81;1647133;86;21054;-71
2022/10/05 12:58:04;;;;;;;3.40;1.50;;;;;;;13.73;62.03;101128.61;1651738;85;21073;-70
2022/10/05 13:00:37;;;;;;;1.77;1.10;;;;;;;13.70;62.11;101124.02;1610738;88;21096;-69
2022/10/05 13:03:25;;;;;;;3.85;1.42;;;;;;;13.67;61.90;101117.54;1655338;86;21053;-70
2022/10/05 13:06:16;;;;;;;3.50;1.42;;;;;;;13.63;62.32;101119.28;1659564;85;21013;-71
2022/10/05 13:09:03;;;;;;;3.72;1.50;;;;;;;13.63;62.79;101126.70;1652628;86;21081;-71
2022/10/05 13:11:44;;;;;;;3.35;1.47;;;;;;;13.63;62.88;101130.30;1661487;85;21081;-69
2022/10/05 13:14:50;;;;;;;3.30;1.50;;;;;;;13.62;62.91;101126.37;1649446;86;21295;-71
2022/10/05 13:17:40;;;;;;;2.90;1.70;;;;;;;13.63;63.13;101123.94;1629429;86;21094;-71
2022/10/05 13:20:21;;;;;;;2.83;1.47;;;;;;;13.67;63.07;101123.89;1641364;86;21126;-71
2022/10/05 13:22:56;;;;;;;2.15;1.25;;;;;;;13.68;63.23;101116.48;1624640;88;21115;-71
2022/10/05 13:25:35;;;;;;;2.27;1.57;;;;;;;13.70;63.00;101130.91;1604135;88;21121;-71
2022/10/05 13:28:24;;;;;;;3.22;1.77;;;;;;;13.69;63.12;101121.80;1615931;87;21082;-71
2022/10/05 13:31:02;;;;;;;4.33;1.80;;;;;;;13.71;63.21;101125.20;1614924;87;21086;-71
2022/10/05 13:34:11;;;;;;;3.10;1.30;;;;;;;13.72;63.06;101126.05;1645768;85;21055;-70
2022/10/05 13:36:54;;;;;;;3.50;1.27;;;;;;;13.70;63.05;101125.40;1637826;86;21103;-71
2022/10/05 13:39:45;;;;;;;3.92;1.35;;;;;;;13.68;62.91;101118.72;1604950;86;21110;-70
2022/10/05 13:42:19;;;;;;;3.75;1.47;;;;;;;13.65;63.08;101119.08;1628442;86;21230;-66
2022/10/05 13:45:02;;;;;;;4.50;1.77;;;;;;;13.64;63.38;101116.00;1644937;86;21042;-69
2022/10/05 13:47:55;;;;;;;2.08;1.10;;;;;;;13.63;63.65;101110.17;1653453;86;21102;-69
2022/10/05 13:50:36;;;;;;;7.85;1.90;;;;;;;13.63;63.73;101119.81;1631467;86;21077;-70
2022/10/05 13:53:44;;;;;;;2.22;1.30;;;;;;;13.63;63.72;101130.30;1640010;86;21126;-68
2022/10/05 13:56:32;;;;;;;5.50;1.70;;;;;;;13.64;63.46;101134.75;1638688;86;21539;-68
2022/10/05 13:59:26;;;;;;;3.35;1.10;;;;;;;13.63;63.47;101138.56;1659711;86;21120;-69
2022/10/05 14:01:59;;;;;;;2.58;1.22;;;;;;;13.62;63.31;101142.36;1637524;86;21115;-71
2022/10/05 14:04:31;;;;;;;3.15;1.10;;;;;;;13.61;63.35;101142.04;1645256;86;21043;-69
2022/10/05 14:07:22;;;;;;;5.60;1.90;;;;;;;13.61;63.11;101142.56;1622723;86;21061;-68
2022/10/05 14:09:52;;;;;;;2.77;1.40;;;;;;;13.58;63.30;101136.08;1652491;86;21045;-69
2022/10/05 14:12:22;;;;;;;3.70;1.32;;;;;;;13.57;63.38;101142.11;1657719;86;21041;-67
2022/10/05 14:14:55;;;;;;;4.28;1.40;;;;;;;13.56;63.42;101136.28;1651505;86;21548;-69
2022/10/05 14:17:38;;;;;;;4.65;1.40;;;;;;;13.53;63.78;101128.41;1638855;86;21576;-71
2022/10/05 14:20:26;;;;;;;3.05;1.27;;;;;;;13.53;63.66;101125.66;1637792;86;21043;-70
2022/10/05 14:23:01;;;;;;;3.27;1.35;;;;;;;13.52;63.82;101123.11;1631549;86;21118;-71
2022/10/05 14:25:31;;;;;;;4.42;1.17;;;;;;;13.50;63.86;101124.69;1637913;86;21072;-68
2022/10/05 14:28:29;;;;;;;5.37;1.77;;;;;;;13.52;63.86;101128.62;1592361;88;21045;-71
2022/10/05 14:31:17;;;;;;;3.77;1.30;;;;;;;13.52;63.91;101134.97;1631720;86;21534;-69
2022/10/05 14:33:47;;;;;;;5.87;1.85;;;;;;;13.53;64.16;101127.56;1649007;86;21088;-70
2022/10/05 14:36:34;;;;;;;6.25;2.65;;;;;;;13.54;64.47;101127.37;1657754;85;21076;-69
2022/10/05 14:39:10;;;;;;;3.70;1.60;;;;;;;13.57;64.53;101132.48;1649012;85;21085;-70
2022/10/05 14:41:48;;;;;;;7.87;2.05;;;;;;;13.59;64.22;101125.39;1627362;86;21447;-69
2022/10/05 14:44:32;;;;;;;8.73;2.10;;;;;;;13.59;64.50;101126.24;1637806;87;21114;-70
2022/10/05 14:47:19;;;;;;;3.62;1.30;;;;;;;13.60;64.64;101123.81;1630834;87;21118;-69
2022/10/05 14:50:09;;;;;;;5.72;1.90;;;;;;;13.59;64.32;101126.24;1628550;86;21466;-69
2022/10/05 14:52:33;;;;;;;5.58;1.70;;;;;;;13.58;64.62;101136.08;1651779;86;21089;-70
2022/10/05 14:55:24;;;;;;;4.58;1.75;;;;;;;13.57;64.68;101133.84;1657478;85;21093;-70
2022/10/05 14:58:16;;;;;;;6.53;1.72;;;;;;;13.54;64.80;101125.98;1643505;85;21617;-70
2022/10/05 15:01:18;;;;;;;3.55;1.62;;;;;;;13.54;64.96;101130.64;1627257;86;21221;-70
2022/10/05 15:04:09;;;;;;;5.92;1.90;;;;;;;13.54;65.22;101143.03;1630325;86;21057;-70
2022/10/05 15:07:01;;;;;;;5.75;1.80;;;;;;;13.54;65.62;101136.16;1577958;89;21113;-70
2022/10/05 15:09:55;;;;;;;7.75;1.87;;;;;;;13.53;65.47;101134.45;1546423;92;21077;-69
2022/10/05 15:12:45;;;;;;;5.47;2.08;;;;;;;13.52;65.54;101134.12;1536336;92;21078;-70
2022/10/05 15:15:24;;;;;;;4.47;2.10;;;;;;;13.50;65.86;101145.34;1548831;91;21103;-70
2022/10/05 15:18:15;;;;;;;7.35;1.85;;;;;;;13.49;66.32;101147.77;1547045;91;21109;-70
2022/10/05 15:21:22;;;;;;;6.58;1.85;;;;;;;13.47;66.17;101154.52;1550688;92;21550;-70
2022/10/05 15:24:07;;;;;;;7.60;2.22;;;;;;;13.44;66.38;101142.52;1555026;88;21102;-69
2022/10/05 15:27:00;;;;;;;6.33;1.98;;;;;;;13.42;66.87;101142.72;1611095;88;21093;-70
2022/10/05 15:30:06;;;;;;;6.03;2.00;;;;;;;13.40;67.33;101133.81;1645731;86;21012;-71
2022/10/05 15:33:04;;;;;;;6.72;2.30;;;;;;;13.38;67.84;101133.16;1642429;86;21053;-70
2022/10/05 15:35:45;;;;;;;10.18;2.40;;;;;;;13.34;68.68;101133.23;1649206;86;21084;-69
2022/10/05 15:38:23;;;;;;;5.90;2.33;;;;;;;13.29;69.01;101139.85;1629709;86;21094;-71
2022/10/05 15:41:16;;;;;;;5.05;2.00;;;;;;;13.28;69.79;101151.91;1645961;86;21144;-69
2022/10/05 15:44:08;;;;;;;8.20;2.80;;;;;;;13.27;70.14;101154.33;1645961;86;21049;-70
2022/10/05 15:46:57;;;;;;;9.33;2.35;;;;;;;13.21;70.23;101145.48;1637931;86;21531;-71
2022/10/05 15:49:46;;;;;;;6.67;2.52;;;;;;;13.19;70.36;101147.06;1637280;86;21104;-70
2022/10/05 15:53:01;;;;;;;6.40;2.70;;;;;;;13.13;70.97;101140.09;1657457;85;21041;-69
2022/10/05 15:56:00;;;;;;;8.75;2.80;;;;;;;13.08;71.69;101153.05;1651467;86;21029;-70
2022/10/05 15:58:57;;;;;;;7.78;3.70;;;;;;;13.04;72.58;101148.14;1644886;86;21106;-69
2022/10/05 16:01:40;;;;;;;5.47;2.90;;;;;;;12.95;72.89;101150.98;1638276;85;21331;-69
2022/10/05 16:04:42;;;;;;;7.65;2.80;;;;;;;12.91;73.28;101167.55;1640657;86;21051;-70
2022/10/05 16:10:24;;;;;;;6.80;2.37;;;;;;;12.79;74.27;101164.98;1638171;86;21079;-69
2022/10/05 16:13:19;;;;;;;8.40;3.00;;;;;;;12.75;74.51;101166.93;1648972;86;21533;-70
2022/10/05 16:15:59;;;;;;;8.23;3.42;;;;;;;12.73;74.87;101169.88;1635534;86;21135;-69
2022/10/05 16:18:50;;;;;;;7.45;4.08;;;;;;;12.69;75.27;101169.93;1640537;86;21075;-68
2022/10/05 16:21:50;;;;;;;8.08;3.70;;;;;;;12.63;75.44;101164.68;1645960;86;21077;-70
2022/10/05 16:24:54;;;;;;;12.85;4.72;;;;;;;12.61;75.56;101162.64;1638699;86;21063;-70
2022/10/05 16:28:11;;;;;;;11.68;4.72;;;;;;;12.58;75.66;101160.80;1649600;85;21049;-69
2022/10/05 16:31:07;;;;;;;8.40;4.42;;;;;;;12.57;75.65;101159.95;1637998;86;21055;-71
2022/10/05 16:34:08;;;;;;;11.40;4.92;;;;;;;12.57;75.69;101160.47;1638125;86;21079;-70
2022/10/05 16:36:51;;;;;;;11.83;4.70;;;;;;;12.58;75.69;101160.80;1647951;86;21124;-69
2022/10/05 16:40:05;;;;;;;13.30;4.28;;;;;;;12.57;75.71;101156.34;1641115;86;21071;-71
2022/10/05 16:42:55;;;;;;;10.90;4.85;;;;;;;12.56;75.97;101158.25;1646191;86;21097;-70
2022/10/05 16:45:32;;;;;;;12.23;4.45;;;;;;;12.56;76.19;101152.75;1635803;86;21059;-69
2022/10/05 16:48:18;;;;;;;13.10;4.80;;;;;;;12.55;76.16;101155.69;1645080;85;21046;-70
2022/10/05 16:51:02;;;;;;;10.40;4.87;;;;;;;12.51;76.28;101157.12;1614928;88;21166;-69
2022/10/05 16:53:40;;;;;;;10.75;4.95;;;;;;;12.49;76.35;101161.95;1604621;88;21085;-71
2022/10/05 16:56:17;;;;;;;8.30;4.80;;;;;;;12.45;76.19;101164.76;1604645;88;21491;-70
2022/10/05 16:59:19;;;;;;;11.75;4.90;;;;;;;12.43;76.19;101154.47;1620848;88;21052;-70
2022/10/05 17:02:00;;;;;;;12.47;5.08;;;;;;;12.46;75.84;101155.47;1656273;85;21521;-69
2022/10/05 17:04:48;;;;;;;11.28;4.80;;;;;;;12.49;75.43;101158.69;1638237;86;21035;-69
2022/10/05 17:07:51;;;;;;;10.30;4.53;;;;;;;12.48;75.02;101160.25;1638041;86;21067;-69
2022/10/05 17:10:51;;;;;;;10.40;4.83;;;;;;;12.48;74.68;101161.63;1638064;86;21058;-70
2022/10/05 17:13:50;;;;;;;11.03;4.55;;;;;;;12.48;74.57;101160.25;1626952;86;21053;-70
2022/10/05 17:16:43;;;;;;;11.97;4.53;;;;;;;12.47;74.42;101158.55;1636106;86;21055;-69
2022/10/05 17:19:46;;;;;;;9.95;4.20;;;;;;;12.50;74.35;101170.53;1642995;86;21114;-69
2022/10/05 17:22:26;;;;;;;10.32;4.40;;;;;;;12.51;74.25;101169.48;1655194;86;21101;-71
2022/10/05 17:25:17;;;;;;;8.70;4.53;;;;;;;12.52;74.25;101173.42;1645041;86;21039;-68
2022/10/05 17:28:13;;;;;;;8.55;4.40;;;;;;;12.53;74.10;101175.65;1644294;85;21047;-70
2022/10/05 17:30:52;;;;;;;8.08;4.47;;;;;;;12.52;74.04;101174.80;1643084;86;21155;-70
2022/10/05 17:33:32;;;;;;;9.40;4.40;;;;;;;12.52;73.86;101174.80;1645674;86;21049;-69
2022/10/05 17:36:11;;;;;;;9.15;4.65;;;;;;;12.52;73.75;101173.94;1644638;86;21081;-69
2022/10/05 17:38:50;;;;;;;10.43;5.42;;;;;;;12.52;73.72;101175.31;1643015;86;21023;-71
2022/10/05 17:41:30;;;;;;;9.63;5.55;;;;;;;12.50;73.69;101170.53;1643112;86;21582;-70
2022/10/05 17:44:19;;;;;;;11.70;6.30;;;;;;;12.50;73.80;101167.78;1651608;86;21081;-70
2022/10/05 17:46:55;;;;;;;10.65;5.85;;;;;;;12.48;73.73;101167.12;1653519;86;21601;-69
2022/10/05 17:55:43;;;;;;;12.00;6.12;;;;;;;12.45;73.96;101167.50;1610393;86;20201;-70
2022/10/05 17:58:30;;;;;;;12.82;6.10;;;;;;;12.41;74.05;101167.55;1643436;86;21305;-69
2022/10/05 18:01:05;;;;;;;12.65;5.75;;;;;;;12.40;74.26;101163.95;1643273;86;21062;-70
2022/10/05 18:03:46;;;;;;;9.45;5.47;;;;;;;12.38;74.36;101155.91;1643447;86;21106;-70
2022/10/05 18:06:32;;;;;;;12.05;5.65;;;;;;;12.40;74.41;101146.61;1643187;86;21090;-69
2022/10/05 18:09:20;;;;;;;;;;;;;;;12.40;74.40;101157.61;1645514;86;21027;-69
2022/10/05 18:12:17;;;;;;;9.35;4.65;;;;;;;12.41;74.35;101165.66;1652643;86;20161;-68
2022/10/05 18:15:06;;;;;;;13.75;6.75;;;;;;;12.39;74.20;101159.50;1636996;86;21517;-69
2022/10/05 18:17:46;;;;;;;11.35;5.85;;;;;;;12.42;74.39;101156.89;1642727;86;21396;-70
2022/10/05 18:20:28;;;;;;;12.75;5.47;;;;;;;12.41;74.53;101157.94;1646940;86;21047;-70
2022/10/05 18:23:09;;;;;;;10.55;4.70;;;;;;;12.42;74.38;101161.02;1655004;86;21119;-69
2022/10/05 18:25:52;;;;;;;9.83;4.17;;;;;;;12.43;74.23;101160.83;1645825;86;21122;-69
2022/10/05 18:28:48;;;;;;;11.30;5.00;;;;;;;12.45;74.07;101162.86;1651687;86;21556;-69
2022/10/05 18:31:40;;;;;;;10.35;4.40;;;;;;;12.48;74.14;101171.25;1654695;86;21138;-70
2022/10/05 18:34:35;;;;;;;8.53;4.85;;;;;;;12.46;74.52;101160.97;1646072;86;21078;-68
2022/10/05 18:37:17;;;;;;;10.48;5.15;;;;;;;12.44;74.64;101169.41;1655805;86;21069;-69
2022/10/05 18:40:20;;;;;;;10.63;4.55;;;;;;;12.41;74.83;101167.55;1634764;86;21090;-71
2022/10/05 18:43:08;;;;;;;8.65;4.25;;;;;;;12.40;74.89;101169.98;1645600;86;21066;-70
2022/10/05 18:45:51;;;;;;;9.78;4.87;;;;;;;12.37;75.00;101158.32;1645722;86;21082;-69
2022/10/05 18:49:02;;;;;;;14.45;4.90;;;;;;;12.36;75.35;101164.86;1650898;86;21097;-68
2022/10/05 18:51:46;;;;;;;13.45;4.95;;;;;;;12.32;75.49;101169.00;1648490;86;21030;-69
2022/10/05 18:54:57;;;;;;;14.83;5.30;;;;;;;12.30;75.86;101169.71;1641280;86;21049;-69
2022/10/05 18:58:07;;;;;;;10.72;5.05;;;;;;;12.27;75.92;101163.22;1661614;85;21485;-68
2022/10/05 19:01:09;;;;;;;10.93;4.55;;;;;;;12.26;76.02;101156.02;1661892;85;21112;-68
2022/10/05 19:03:54;;;;;;;11.33;5.85;;;;;;;12.23;76.10;101154.17;1634385;87;21075;-69
2022/10/05 19:06:50;;;;;;;14.45;5.90;;;;;;;12.19;76.42;101152.33;1636992;86;21519;-67
2022/10/05 19:09:28;;;;;;;14.38;6.80;;;;;;;12.14;76.71;101157.55;1636506;86;21536;-69
2022/10/05 19:12:10;;;;;;;13.30;7.33;;;;;;;12.10;77.02;101153.99;1653254;85;21112;-69
2022/10/05 19:14:49;;;;;;;10.08;5.75;;;;;;;12.09;77.31;101155.89;1654586;85;21134;-69
2022/10/05 19:17:27;;;;;;;11.30;6.90;;;;;;;12.04;77.46;101155.59;1628835;86;21148;-68
2022/10/05 19:20:50;;;;;;;12.80;7.63;;;;;;;12.05;77.56;101162.80;1661363;85;21022;-70
2022/10/05 19:23:50;;;;;;;10.38;6.95;;;;;;;12.04;77.74;101156.45;1643698;86;21079;-69
2022/10/05 19:26:51;;;;;;;13.05;7.08;;;;;;;12.02;77.93;101153.56;1646053;86;21127;-70
2022/10/05 19:29:45;;;;;;;10.68;5.83;;;;;;;12.00;78.07;101159.77;1660772;86;21053;-71
2022/10/05 19:32:54;;;;;;;9.65;5.15;;;;;;;11.99;78.16;101160.28;1660796;86;21121;-70
2022/10/05 19:35:41;;;;;;;11.40;4.95;;;;;;;12.02;78.01;101169.52;1649236;85;21060;-70
2022/10/05 19:38:47;;;;;;;8.88;4.90;;;;;;;12.05;77.85;101166.92;1653428;86;21437;-68
2022/10/05 19:41:26;;;;;;;9.25;4.90;;;;;;;12.08;77.88;101174.78;1651934;86;21103;-69
2022/10/05 19:44:09;;;;;;;9.40;4.42;;;;;;;12.10;77.82;101185.06;1637628;86;21007;-68
2022/10/05 19:47:16;;;;;;;5.70;3.52;;;;;;;12.12;77.64;101191.22;1653212;86;21045;-68
2022/10/05 19:49:57;;;;;;;8.50;3.42;;;;;;;12.13;77.36;101191.55;1628516;86;21097;-68
2022/10/05 19:52:30;;;;;;;7.45;3.55;;;;;;;12.16;76.88;101182.94;1657100;85;21445;-69
2022/10/05 19:55:25;;;;;;;5.25;3.35;;;;;;;12.21;76.50;101184.59;1650461;86;21036;-68
2022/10/05 19:58:02;;;;;;;7.28;3.40;;;;;;;12.24;76.30;101188.86;1649145;86;21168;-70
2022/10/05 20:00:32;;;;;;;5.35;3.02;;;;;;;12.26;76.15;101191.75;1650492;85;21083;-68
2022/10/05 20:03:25;;;;;;;7.58;2.90;;;;;;;12.28;75.96;101195.16;1658290;85;21464;-70
2022/10/05 20:05:53;;;;;;;5.42;3.15;;;;;;;12.30;75.98;101199.94;1650467;86;21045;-69
2022/10/05 20:08:26;;;;;;;6.22;3.20;;;;;;;12.31;76.11;101177.44;1561345;89;21127;-69
2022/10/05 20:11:16;;;;;;;6.25;3.10;;;;;;;12.31;76.08;101176.91;1649590;86;21053;-68
2022/10/05 20:13:59;;;;;;;7.37;3.80;;;;;;;12.31;76.07;101171.94;1650558;85;21051;-69
2022/10/05 20:22:36;;;;;;;8.98;4.12;;;;;;;12.36;75.46;101143.39;1635254;87;21063;-69
2022/10/05 20:25:19;;;;;;;8.25;3.75;;;;;;;12.36;75.39;101141.50;1630914;87;21095;-69
2022/10/05 20:27:54;;;;;;;7.45;3.47;;;;;;;12.37;75.27;101139.08;1630055;88;21072;-69
2022/10/05 20:30:26;;;;;;;7.00;3.20;;;;;;;12.36;75.32;101137.38;1630952;88;21096;-67
2022/10/05 20:32:58;;;;;;;5.00;3.17;;;;;;;12.35;75.25;101128.80;1631803;87;21080;-68
2022/10/05 20:35:31;;;;;;;8.55;3.20;;;;;;;12.36;75.13;101136.00;1630881;87;21235;-67
2022/10/05 20:38:00;;;;;;;5.40;2.98;;;;;;;12.37;75.07;101136.86;1634406;87;21067;-68
2022/10/05 20:40:30;;;;;;;6.92;3.10;;;;;;;12.36;75.11;101134.63;1631303;86;21115;-67
2022/10/05 20:42:59;;;;;;;7.62;3.25;;;;;;;12.36;75.07;101136.00;1631333;86;21032;-68
2022/10/05 20:45:29;;;;;;;5.65;2.85;;;;;;;12.36;75.11;101146.14;1631164;87;21079;-68
2022/10/05 20:47:58;;;;;;;10.08;3.17;;;;;;;12.37;74.99;101139.60;1631083;86;21075;-67
2022/10/05 20:50:28;;;;;;;6.58;3.67;;;;;;;12.37;74.87;101145.10;1631191;88;21827;-67
2022/10/05 20:52:56;;;;;;;6.62;3.55;;;;;;;12.38;74.80;101143.53;1638188;87;21058;-68
2022/10/05 20:55:30;;;;;;;7.10;3.30;;;;;;;12.37;74.90;101148.70;1639567;87;21055;-68
2022/10/05 20:57:58;;;;;;;6.58;3.30;;;;;;;12.37;75.02;101151.45;1632013;87;21103;-70
2022/10/05 21:01:14;;;;;;;7.40;3.55;;;;;;;12.38;74.93;101146.28;1640946;87;21612;-68
2022/10/05 21:03:02;;;;;;;9.53;3.92;;;;;;;12.38;74.95;101149.03;1639067;86;21473;-69
2022/10/05 21:05:33;;;;;;;8.65;3.47;;;;;;;12.40;74.89;101147.47;1639974;86;21055;-67
2022/10/05 21:08:07;;;;;;;8.33;3.90;;;;;;;12.39;74.86;101152.63;1631917;87;21507;-69
2022/10/05 21:10:37;;;;;;;6.60;3.45;;;;;;;12.40;74.93;101156.23;1644273;86;21069;-69
2022/10/05 21:13:07;;;;;;;6.85;3.50;;;;;;;12.37;75.13;101154.72;1632277;87;21543;-69
2022/10/05 21:15:38;;;;;;;10.40;4.58;;;;;;;12.37;75.31;101157.47;1634299;86;21110;-68
2022/10/05 21:18:14;;;;;;;8.35;3.92;;;;;;;12.36;75.49;101160.73;1642394;86;21205;-70
2022/10/05 21:20:46;;;;;;;11.45;3.77;;;;;;;12.34;75.36;101150.95;1642388;86;21112;-67
2022/10/05 21:23:16;;;;;;;9.88;4.42;;;;;;;12.34;75.48;101157.81;1656600;86;21108;-66
2022/10/05 21:25:47;;;;;;;10.82;4.67;;;;;;;12.33;75.75;101145.97;1638033;86;21093;-69
2022/10/05 21:28:16;;;;;;;10.40;5.15;;;;;;;12.33;75.73;101142.37;1655384;86;21025;-69
2022/10/05 21:30:45;;;;;;;10.40;5.50;;;;;;;12.31;75.72;101136.22;1644994;86;21015;-68